»·PEaware :: N2600U KSNA-KRNM

N2600U :: KSNA-KRNM

FLIGHT INFORMATION

Flight Status: Arrived
Operator: Privately registered:
United States
More flights under this callsign
Pilot: Matthew F. (17981)
Aircraft: PILATUS PC-12 EAGLE
(PC12)
More flights by this aircraft type
Origin: KSNA John Wayne-Orange Co
United States
Destination: KRNM Ramona
United States
More flights between these airports :: More routes between these airports
Route: V25 PACIF V208 JLI
File this flight plan on PilotEdge
Remarks: TEC route CSTP32
Altitude:
(Current/Filed)
7,000ft
Speed:
(Current/Filed)
150kts
Departed: 06-Jan-19 06:08 PM
Arrived: 06-Jan-19 06:42 PM
Distance/Time
Traveled:
61nm/0:33
Distance/Time
To Go:
Arrived

Flight Plot

Page will automatically refresh every two minutes.


Map Options




Map Legend


Flown Route
Filed Route
Departure Airport
Arrival Airport
Navaid (VOR, NDB)
Fix

Horizontal Profiles

Position Reports

Time Latitude Longitude Heading Altitude Ground
Speed
06-Jan-19 17:26 33.672638 -117.866157 258 51ft 0kts
06-Jan-19 17:27 33.672638 -117.866157 258 51ft 0kts
06-Jan-19 17:28 33.672638 -117.866157 258 51ft 0kts
06-Jan-19 17:29 33.672638 -117.866157 258 51ft 0kts
06-Jan-19 17:30 33.672638 -117.866157 258 51ft 0kts
06-Jan-19 17:31 33.672638 -117.866157 258 51ft 0kts
06-Jan-19 17:32 33.672638 -117.866157 258 51ft 0kts
06-Jan-19 17:33 33.672638 -117.866157 258 51ft 0kts
06-Jan-19 17:34 33.672638 -117.866157 258 51ft 0kts
06-Jan-19 17:35 33.672638 -117.866157 258 51ft 0kts
06-Jan-19 17:36 33.672638 -117.866157 258 51ft 0kts
06-Jan-19 17:37 33.672638 -117.866157 258 51ft 0kts
06-Jan-19 17:38 33.672638 -117.866157 258 51ft 0kts
06-Jan-19 17:39 33.672638 -117.866157 258 51ft 0kts
06-Jan-19 17:40 33.672638 -117.866157 258 51ft 0kts
06-Jan-19 17:41 33.672638 -117.866157 258 51ft 0kts
06-Jan-19 17:42 33.672638 -117.866157 258 51ft 0kts
06-Jan-19 17:43 33.672638 -117.866157 258 51ft 0kts
06-Jan-19 17:44 33.672638 -117.866157 258 51ft 0kts
06-Jan-19 17:45 33.672638 -117.866157 258 51ft 0kts
06-Jan-19 17:46 33.672638 -117.866157 258 51ft 0kts
06-Jan-19 17:47 33.672638 -117.866157 258 51ft 0kts
06-Jan-19 17:48 33.672638 -117.866157 258 51ft 0kts
06-Jan-19 17:49 33.672638 -117.866157 258 51ft 0kts
06-Jan-19 17:50 33.672638 -117.866157 258 51ft 0kts
06-Jan-19 17:51 33.672638 -117.866157 258 51ft 0kts
06-Jan-19 17:52 33.672638 -117.866157 258 51ft 0kts
06-Jan-19 17:53 33.672638 -117.866157 258 51ft 0kts
06-Jan-19 17:54 33.672638 -117.866158 258 51ft 0kts
06-Jan-19 17:55 33.672638 -117.866158 258 51ft 0kts
06-Jan-19 17:56 33.672638 -117.866158 258 51ft 0kts
06-Jan-19 17:57 33.672638 -117.866158 258 51ft 0kts
06-Jan-19 17:58 33.672638 -117.866158 258 51ft 0kts
06-Jan-19 17:59 33.672638 -117.866158 258 51ft 0kts
06-Jan-19 18:00 33.672735 -117.866866 297 52ft 8kts
06-Jan-19 18:01 33.674274 -117.867020 28 53ft 7kts
06-Jan-19 18:02 33.678082 -117.864612 28 53ft 19kts
06-Jan-19 18:03 33.680170 -117.864076 298 53ft 6kts
06-Jan-19 18:04 33.680454 -117.864756 292 53ft 0kts
06-Jan-19 18:05 33.680454 -117.864756 292 53ft 0kts
06-Jan-19 18:06 33.680454 -117.864756 292 53ft 0kts
06-Jan-19 18:07 33.675336 -117.868916 207 118ft 97kts
06-Jan-19 18:09 33.644972 -117.874145 185 1873ft 138kts
06-Jan-19 18:10 33.610467 -117.876377 186 3579ft 130kts
06-Jan-19 18:11 33.572949 -117.877930 186 5190ft 152kts
06-Jan-19 18:12 33.537728 -117.878532 186 6630ft 154kts
06-Jan-19 18:13 33.497321 -117.878774 186 7008ft 160kts
06-Jan-19 18:14 33.456714 -117.878896 186 7009ft 157kts
06-Jan-19 18:15 33.420106 -117.856738 151 7009ft 167kts
06-Jan-19 18:16 33.384019 -117.827177 151 7010ft 173kts
06-Jan-19 18:17 33.346803 -117.796883 151 7011ft 176kts
06-Jan-19 18:18 33.309284 -117.766391 151 7012ft 177kts
06-Jan-19 18:19 33.282138 -117.724563 103 7015ft 181kts
06-Jan-19 18:20 33.274396 -117.670295 100 7015ft 179kts
06-Jan-19 18:21 33.266183 -117.614060 100 7022ft 200kts
06-Jan-19 18:22 33.256416 -117.543928 98 7021ft 251kts
06-Jan-19 18:23 33.247400 -117.466543 97 7018ft 257kts
06-Jan-19 18:24 33.237804 -117.389086 97 7018ft 258kts
06-Jan-19 18:25 33.229039 -117.314353 97 7013ft 257kts
06-Jan-19 18:26 33.219943 -117.237312 96 7011ft 256kts
06-Jan-19 18:27 33.210769 -117.160051 95 7010ft 254kts
06-Jan-19 18:27 33.203162 -117.096444 95 7008ft 250kts
06-Jan-19 18:29 33.192624 -117.008714 96 7005ft 246kts
06-Jan-19 18:30 33.183676 -116.934385 97 7002ft 245kts
06-Jan-19 18:30 33.176336 -116.874437 98 6997ft 227kts
06-Jan-19 18:31 33.150744 -116.827713 151 6484ft 169kts
06-Jan-19 18:32 33.117976 -116.802467 151 6051ft 141kts
06-Jan-19 18:33 33.086777 -116.778592 151 5326ft 147kts
06-Jan-19 18:34 33.054870 -116.754616 151 4998ft 141kts
06-Jan-19 18:35 33.023114 -116.743880 189 4980ft 135kts
06-Jan-19 18:36 33.018363 -116.775360 283 4812ft 130kts
06-Jan-19 18:37 33.024322 -116.814881 279 4159ft 125kts
06-Jan-19 18:38 33.029243 -116.848095 279 3101ft 101kts
06-Jan-19 18:39 33.033364 -116.878698 280 2124ft 105kts
06-Jan-19 18:40 33.038349 -116.909831 280 1404ft 87kts
06-Jan-19 18:41 33.039611 -116.915012 12 1396ft 0kts
06-Jan-19 18:42 33.039915 -116.915716 277 1396ft 8kts
06-Jan-19 18:43 33.040792 -116.917371 1 1396ft 0kts

Navigation Log

Ident Type
Flight plan parsing failed, navigation log unavailable